Terminal Aerodrome Forecast
Issued by NWS

Home | Current Version | Previous Version | Graphics & Text | Print | Product List | Glossary On
Versions: 1 2 3 4 5 6 7 8 9 10 11 12 13 14 15 16 17 18 19 20 21 22 23 24 25 26 27 28 29 30 31 32 33 34 35 36 37 38 39 40 41 42
462
FTUS43 KGRB 250158 AAB
TAFRHI
TAF AMD
KRHI 250158Z 2502/2524 03008KT P6SM VCTS SCT025 BKN045CB
     FM250300 21006KT P6SM SCT040 BKN080 WS018/25035KT
     FM251300 22010G17KT P6SM VCTS BKN035CB=

USA.gov is the U.S. government's official web portal to all federal, state and local government web resources and services.